Time,TemperatureF,DewpointF,PressureIn,WindDirection,WindDirectionDegrees,WindSpeedMPH,WindSpeedGustMPH,Humidity,HourlyPrecipIn,Conditions,Clouds,dailyrainin,SoftwareType,DateUTC
2013-07-05 00:05:00,66.3,62.0,30.09,South,186,5.0,7.0,86,0.00,,,0.00,weatherlink.com 1.10,2013-07-05 04:05:00,
2013-07-05 00:20:00,66.1,62.0,30.09,SSW,203,0.0,4.0,86,0.00,,,0.00,weatherlink.com 1.10,2013-07-05 04:20:00,
2013-07-05 00:35:00,65.9,62.0,30.09,SSW,203,0.0,3.0,86,0.00,,,0.00,weatherlink.com 1.10,2013-07-05 04:35:00,
2013-07-05 00:50:00,65.4,61.0,30.08,SSW,203,0.0,2.0,86,0.00,,,0.00,weatherlink.com 1.10,2013-07-05 04:50:00,
2013-07-05 01:05:00,65.7,62.0,30.08,South,171,2.0,5.0,86,0.00,,,0.00,weatherlink.com 1.10,2013-07-05 05:05:00,
2013-07-05 01:20:00,65.6,61.0,30.08,SSW,196,0.0,1.0,86,0.00,,,0.00,weatherlink.com 1.10,2013-07-05 05:20:00,
2013-07-05 01:35:00,64.8,61.0,30.08,SSW,196,0.0,0.0,86,0.00,,,0.00,weatherlink.com 1.10,2013-07-05 05:35:00,
2013-07-05 01:50:00,64.1,60.0,30.08,SSW,196,0.0,2.0,87,0.00,,,0.00,weatherlink.com 1.10,2013-07-05 05:50:00,
2013-07-05 02:05:00,64.2,60.0,30.08,SSW,196,0.0,1.0,87,0.00,,,0.00,weatherlink.com 1.10,2013-07-05 06:05:00,
2013-07-05 02:20:00,63.4,59.0,30.08,SSW,196,0.0,0.0,86,0.00,,,0.00,weatherlink.com 1.10,2013-07-05 06:20:00,
2013-07-05 02:35:00,62.2,58.0,30.08,SSW,196,0.0,0.0,86,0.00,,,0.00,weatherlink.com 1.10,2013-07-05 06:35:00,
2013-07-05 02:50:00,61.2,57.0,30.09,SSW,196,0.0,0.0,87,0.00,,,0.00,weatherlink.com 1.10,2013-07-05 06:50:00,
2013-07-05 03:05:00,60.0,56.0,30.08,SSW,196,0.0,0.0,87,0.00,,,0.00,weatherlink.com 1.10,2013-07-05 07:05:00,
2013-07-05 03:20:00,59.4,56.0,30.09,NW,311,0.0,4.0,87,0.00,,,0.00,weatherlink.com 1.10,2013-07-05 07:20:00,
2013-07-05 03:35:00,58.9,55.0,30.08,NW,311,0.0,0.0,87,0.00,,,0.00,weatherlink.com 1.10,2013-07-05 07:35:00,
2013-07-05 03:50:00,58.5,55.0,30.08,NW,311,0.0,2.0,87,0.00,,,0.00,weatherlink.com 1.10,2013-07-05 07:50:00,
2013-07-05 04:05:00,57.9,54.0,30.08,NW,311,0.0,0.0,87,0.00,,,0.00,weatherlink.com 1.10,2013-07-05 08:05:00,
2013-07-05 04:20:00,57.4,54.0,30.08,NW,311,0.0,1.0,87,0.00,,,0.00,weatherlink.com 1.10,2013-07-05 08:20:00,
2013-07-05 04:35:00,57.2,53.0,30.08,NW,311,0.0,2.0,87,0.00,,,0.00,weatherlink.com 1.10,2013-07-05 08:35:00,
2013-07-05 04:50:00,56.7,53.0,30.08,NW,311,0.0,0.0,87,0.00,,,0.00,weatherlink.com 1.10,2013-07-05 08:50:00,
2013-07-05 05:05:00,56.6,53.0,30.08,NW,311,0.0,0.0,87,0.00,,,0.00,weatherlink.com 1.10,2013-07-05 09:05:00,
2013-07-05 05:20:00,56.6,53.0,30.08,NW,311,0.0,2.0,87,0.00,,,0.00,weatherlink.com 1.10,2013-07-05 09:20:00,
2013-07-05 05:35:00,56.3,53.0,30.08,NW,311,0.0,0.0,88,0.00,,,0.00,weatherlink.com 1.10,2013-07-05 09:35:00,
2013-07-05 05:50:00,56.4,53.0,30.08,NW,311,0.0,1.0,88,0.00,,,0.00,weatherlink.com 1.10,2013-07-05 09:50:00,
2013-07-05 06:05:00,56.3,53.0,30.08,NW,311,0.0,0.0,87,0.00,,,0.00,weatherlink.com 1.10,2013-07-05 10:05:00,
2013-07-05 06:20:00,56.4,53.0,30.08,NW,311,0.0,2.0,88,0.00,,,0.00,weatherlink.com 1.10,2013-07-05 10:20:00,
2013-07-05 06:35:00,56.8,53.0,30.08,NW,311,0.0,0.0,87,0.00,,,0.00,weatherlink.com 1.10,2013-07-05 10:35:00,
2013-07-05 06:50:00,57.7,54.0,30.08,NW,311,0.0,0.0,88,0.00,,,0.00,weatherlink.com 1.10,2013-07-05 10:50:00,
2013-07-05 07:05:00,58.7,55.0,30.08,NW,311,0.0,0.0,88,0.00,,,0.00,weatherlink.com 1.10,2013-07-05 11:05:00,
2013-07-05 07:35:00,63.0,59.0,30.09,NW,311,0.0,3.0,88,0.00,,,0.00,weatherlink.com 1.10,2013-07-05 11:35:00,
2013-07-05 08:05:00,67.1,63.0,30.09,South,179,3.0,5.0,86,0.00,,,0.00,weatherlink.com 1.10,2013-07-05 12:05:00,
2013-07-05 08:35:00,67.8,63.0,30.09,South,190,2.0,6.0,84,0.00,,,0.00,weatherlink.com 1.10,2013-07-05 12:35:00,
2013-07-05 08:51:00,68.1,63.0,30.09,SSW,200,1.0,6.0,83,0.00,,,0.00,weatherlink.com 1.10,2013-07-05 12:51:00,
2013-07-05 09:06:00,68.3,62.0,30.10,South,181,3.0,6.0,81,0.00,,,0.00,weatherlink.com 1.10,2013-07-05 13:06:00,
2013-07-05 09:21:00,68.1,63.0,30.10,South,182,0.0,5.0,83,0.00,,,0.00,weatherlink.com 1.10,2013-07-05 13:21:00,
2013-07-05 09:36:00,68.9,63.0,30.10,SW,215,4.0,7.0,81,0.00,,,0.00,weatherlink.com 1.10,2013-07-05 13:36:00,
2013-07-05 09:51:00,69.7,64.0,30.10,SSW,195,3.0,7.0,81,0.00,,,0.00,weatherlink.com 1.10,2013-07-05 13:51:00,
2013-07-05 10:06:00,69.3,64.0,30.10,SSW,200,4.0,7.0,84,0.00,,,0.00,weatherlink.com 1.10,2013-07-05 14:06:00,
2013-07-05 10:21:00,69.5,63.0,30.10,SSE,149,0.0,6.0,81,0.00,,,0.00,weatherlink.com 1.10,2013-07-05 14:21:00,
2013-07-05 10:36:00,69.9,64.0,30.10,SSW,204,3.0,8.0,80,0.00,,,0.00,weatherlink.com 1.10,2013-07-05 14:36:00,
2013-07-05 10:51:00,69.4,63.0,30.10,SSW,206,4.0,6.0,80,0.00,,,0.00,weatherlink.com 1.10,2013-07-05 14:51:00,
2013-07-05 11:06:00,69.9,64.0,30.10,SE,144,0.0,5.0,81,0.00,,,0.00,weatherlink.com 1.10,2013-07-05 15:06:00,
2013-07-05 11:21:00,70.4,64.0,30.09,SSW,197,2.0,8.0,79,0.00,,,0.00,weatherlink.com 1.10,2013-07-05 15:21:00,
2013-07-05 11:36:00,71.2,64.0,30.09,South,189,5.0,7.0,78,0.00,,,0.00,weatherlink.com 1.10,2013-07-05 15:36:00,
2013-07-05 11:51:00,71.9,64.0,30.10,South,182,2.0,7.0,77,0.00,,,0.00,weatherlink.com 1.10,2013-07-05 15:51:00,
2013-07-05 12:06:00,71.5,64.0,30.10,SSW,201,5.0,7.0,77,0.00,,,0.00,weatherlink.com 1.10,2013-07-05 16:06:00,
2013-07-05 12:21:00,72.2,65.0,30.09,SSW,197,5.0,7.0,78,0.00,,,0.00,weatherlink.com 1.10,2013-07-05 16:21:00,
2013-07-05 12:36:00,73.0,67.0,30.09,SW,221,3.0,6.0,82,0.00,,,0.00,weatherlink.com 1.10,2013-07-05 16:36:00,
2013-07-05 12:51:00,73.8,65.0,30.09,South,182,2.0,7.0,75,0.00,,,0.00,weatherlink.com 1.10,2013-07-05 16:51:00,
2013-07-05 13:06:00,74.6,66.0,30.09,SSE,165,2.0,7.0,75,0.00,,,0.00,weatherlink.com 1.10,2013-07-05 17:06:00,
2013-07-05 13:21:00,74.2,66.0,30.09,SE,137,0.0,8.0,75,0.00,,,0.00,weatherlink.com 1.10,2013-07-05 17:21:00,
2013-07-05 13:36:00,74.8,67.0,30.08,SSE,157,2.0,5.0,76,0.00,,,0.00,weatherlink.com 1.10,2013-07-05 17:36:00,
2013-07-05 13:51:00,74.8,65.0,30.08,SSE,148,2.0,10.0,72,0.00,,,0.00,weatherlink.com 1.10,2013-07-05 17:51:00,
2013-07-05 14:06:00,75.1,65.0,30.08,South,173,3.0,8.0,71,0.00,,,0.00,weatherlink.com 1.10,2013-07-05 18:06:00,
2013-07-05 14:21:00,74.9,66.0,30.08,SSE,155,5.0,10.0,74,0.00,,,0.00,weatherlink.com 1.10,2013-07-05 18:21:00,
2013-07-05 14:36:00,74.8,66.0,30.07,South,178,7.0,9.0,75,0.00,,,0.00,weatherlink.com 1.10,2013-07-05 18:36:00,
2013-07-05 14:51:00,75.7,67.0,30.07,ESE,111,2.0,12.0,74,0.00,,,0.00,weatherlink.com 1.10,2013-07-05 18:51:00,
2013-07-05 15:06:00,77.0,68.0,30.07,South,178,2.0,8.0,73,0.00,,,0.00,weatherlink.com 1.10,2013-07-05 19:06:00,
2013-07-05 15:21:00,77.5,67.0,30.06,SSE,150,4.0,8.0,69,0.00,,,0.00,weatherlink.com 1.10,2013-07-05 19:21:00,
2013-07-05 15:36:00,78.2,66.0,30.06,ESE,123,0.0,8.0,66,0.00,,,0.00,weatherlink.com 1.10,2013-07-05 19:36:00,
2013-07-05 15:51:00,78.4,65.0,30.05,SSE,161,3.0,8.0,64,0.00,,,0.00,weatherlink.com 1.10,2013-07-05 19:51:00,
2013-07-05 16:06:00,78.1,66.0,30.05,SSW,207,3.0,11.0,66,0.00,,,0.00,weatherlink.com 1.10,2013-07-05 20:06:00,
2013-07-05 16:21:00,78.1,66.0,30.05,SSW,197,4.0,7.0,67,0.00,,,0.00,weatherlink.com 1.10,2013-07-05 20:21:00,
2013-07-05 16:36:00,78.3,67.0,30.04,SSW,193,0.0,8.0,69,0.00,,,0.00,weatherlink.com 1.10,2013-07-05 20:36:00,
2013-07-05 16:51:00,78.0,67.0,30.04,South,186,7.0,9.0,69,0.00,,,0.00,weatherlink.com 1.10,2013-07-05 20:51:00,
2013-07-05 17:06:00,78.0,67.0,30.04,South,175,6.0,11.0,70,0.00,,,0.00,weatherlink.com 1.10,2013-07-05 21:06:00,
2013-07-05 17:21:00,76.0,67.0,30.04,SSW,211,5.0,8.0,74,0.00,,,0.00,weatherlink.com 1.10,2013-07-05 21:21:00,
2013-07-05 17:36:00,76.2,67.0,30.03,South,182,5.0,11.0,72,0.00,,,0.00,weatherlink.com 1.10,2013-07-05 21:36:00,
2013-07-05 17:51:00,76.6,65.0,30.04,SSW,202,5.0,10.0,68,0.00,,,0.00,weatherlink.com 1.10,2013-07-05 21:51:00,
2013-07-05 18:06:00,76.0,65.0,30.03,South,180,3.0,11.0,68,0.00,,,0.00,weatherlink.com 1.10,2013-07-05 22:06:00,
2013-07-05 18:21:00,75.9,64.0,30.03,SSW,204,5.0,14.0,66,0.00,,,0.00,weatherlink.com 1.10,2013-07-05 22:21:00,
2013-07-05 18:36:00,75.5,64.0,30.02,SSE,159,3.0,9.0,67,0.00,,,0.00,weatherlink.com 1.10,2013-07-05 22:36:00,
2013-07-05 18:51:00,75.5,63.0,30.02,SSE,167,6.0,11.0,65,0.00,,,0.00,weatherlink.com 1.10,2013-07-05 22:51:00,
2013-07-05 19:06:00,75.2,64.0,30.02,SW,221,2.0,8.0,69,0.00,,,0.00,weatherlink.com 1.10,2013-07-05 23:06:00,
2013-07-05 19:22:00,74.5,65.0,30.02,SSW,192,3.0,8.0,73,0.00,,,0.00,weatherlink.com 1.10,2013-07-05 23:22:00,
2013-07-05 19:37:00,74.1,65.0,30.02,South,184,5.0,8.0,74,0.00,,,0.00,weatherlink.com 1.10,2013-07-05 23:37:00,
2013-07-05 19:52:00,73.9,66.0,30.03,South,189,0.0,5.0,75,0.00,,,0.00,weatherlink.com 1.10,2013-07-05 23:52:00,
2013-07-05 20:07:00,74.1,66.0,30.03,SSW,193,0.0,6.0,75,0.00,,,0.00,weatherlink.com 1.10,2013-07-06 00:07:00,
2013-07-05 20:22:00,74.2,65.0,30.03,SSE,148,2.0,5.0,73,0.00,,,0.00,weatherlink.com 1.10,2013-07-06 00:22:00,
2013-07-05 20:37:00,73.9,64.0,30.04,South,172,2.0,3.0,72,0.00,,,0.00,weatherlink.com 1.10,2013-07-06 00:37:00,
2013-07-05 20:52:00,73.6,64.0,30.04,SSE,163,0.0,5.0,73,0.00,,,0.00,weatherlink.com 1.10,2013-07-06 00:52:00,
2013-07-05 21:07:00,72.7,64.0,30.04,SSE,163,0.0,3.0,75,0.00,,,0.00,weatherlink.com 1.10,2013-07-06 01:07:00,
2013-07-05 21:22:00,71.6,65.0,30.04,SSE,163,0.0,2.0,79,0.00,,,0.00,weatherlink.com 1.10,2013-07-06 01:22:00,
2013-07-05 21:37:00,70.3,64.0,30.04,SSE,163,0.0,0.0,81,0.00,,,0.00,weatherlink.com 1.10,2013-07-06 01:37:00,
2013-07-05 21:52:00,69.5,63.0,30.04,SSE,163,0.0,3.0,81,0.00,,,0.00,weatherlink.com 1.10,2013-07-06 01:52:00,
2013-07-05 22:07:00,69.4,63.0,30.04,South,174,0.0,1.0,80,0.00,,,0.00,weatherlink.com 1.10,2013-07-06 02:07:00,
2013-07-05 22:22:00,67.8,63.0,30.05,South,174,0.0,1.0,83,0.00,,,0.00,weatherlink.com 1.10,2013-07-06 02:22:00,
2013-07-05 22:37:00,66.5,62.0,30.05,South,174,0.0,1.0,84,0.00,,,0.00,weatherlink.com 1.10,2013-07-06 02:37:00,
2013-07-05 22:52:00,65.7,61.0,30.05,South,174,0.0,1.0,85,0.00,,,0.00,weatherlink.com 1.10,2013-07-06 02:52:00,
2013-07-05 23:07:00,64.9,60.0,30.05,South,174,0.0,1.0,85,0.00,,,0.00,weatherlink.com 1.10,2013-07-06 03:07:00,
2013-07-05 23:22:00,64.2,60.0,30.05,South,174,0.0,0.0,86,0.00,,,0.00,weatherlink.com 1.10,2013-07-06 03:22:00,
2013-07-05 23:37:00,64.4,60.0,30.05,South,174,0.0,2.0,86,0.00,,,0.00,weatherlink.com 1.10,2013-07-06 03:37:00,
2013-07-05 23:52:00,65.7,62.0,30.05,SE,125,0.0,3.0,86,0.00,,,0.00,weatherlink.com 1.10,2013-07-06 03:52:00,